TimeCDT,TemperatureF,Dew PointF,Humidity,Sea Level PressureIn,VisibilityMPH,Wind Direction,Wind SpeedMPH,Gust SpeedMPH,PrecipitationIn,Events,Conditions,WindDirDegrees,DateUTC
12:53 AM,62.1,59.0,90,30.05,10.0,SE,5.8,-,N/A,,Clear,140,2012-10-22 05:53:00
1:53 AM,61.0,59.0,93,30.04,10.0,SE,4.6,-,N/A,,Clear,140,2012-10-22 06:53:00
2:53 AM,61.0,59.0,93,30.04,10.0,SE,3.5,-,N/A,,Clear,140,2012-10-22 07:53:00
3:53 AM,59.0,57.9,96,30.04,8.0,SE,3.5,-,N/A,,Clear,140,2012-10-22 08:53:00
4:53 AM,55.9,55.0,97,30.04,6.0,SE,4.6,-,N/A,,Clear,130,2012-10-22 09:53:00
5:53 AM,55.9,55.0,97,30.06,4.0,SE,8.1,-,N/A,,Clear,130,2012-10-22 10:53:00
6:53 AM,55.9,55.9,100,30.09,3.0,SE,4.6,-,N/A,,Clear,140,2012-10-22 11:53:00
7:53 AM,55.9,55.9,100,30.10,4.0,Calm,Calm,-,0.01,,Clear,0,2012-10-22 12:53:00
8:00 AM,57.2,55.4,94,30.09,2.0,ESE,3.5,-,N/A,,Clear,120,2012-10-22 13:00:00
8:09 AM,57.2,57.2,100,30.09,4.0,SE,4.6,-,N/A,,Clear,130,2012-10-22 13:09:00
8:53 AM,62.1,60.1,93,30.11,10.0,SE,5.8,-,N/A,,Clear,140,2012-10-22 13:53:00
9:53 AM,68.0,61.0,78,30.12,10.0,SSE,10.4,-,N/A,,Clear,150,2012-10-22 14:53:00
10:53 AM,75.0,62.1,64,30.11,10.0,SE,9.2,-,N/A,,Clear,130,2012-10-22 15:53:00
11:53 AM,79.0,63.0,58,30.10,10.0,SE,11.5,-,N/A,,Clear,140,2012-10-22 16:53:00
12:53 PM,81.0,61.0,50,30.07,10.0,SSE,8.1,-,N/A,,Clear,160,2012-10-22 17:53:00
1:53 PM,82.9,59.0,44,30.04,10.0,South,5.8,-,N/A,,Clear,180,2012-10-22 18:53:00
2:53 PM,84.9,59.0,41,30.02,10.0,SE,6.9,17.3,N/A,,Clear,130,2012-10-22 19:53:00
3:53 PM,84.9,57.0,38,30.01,10.0,SE,9.2,-,N/A,,Clear,140,2012-10-22 20:53:00
4:53 PM,84.0,55.9,38,30.00,10.0,SE,6.9,-,N/A,,Clear,130,2012-10-22 21:53:00
5:53 PM,81.0,59.0,47,30.01,10.0,SSE,4.6,-,N/A,,Clear,160,2012-10-22 22:53:00
6:53 PM,70.0,61.0,73,30.02,10.0,Calm,Calm,-,N/A,,Clear,0,2012-10-22 23:53:00
7:53 PM,70.0,60.1,71,30.03,10.0,SE,3.5,-,N/A,,Clear,140,2012-10-23 00:53:00
8:53 PM,68.0,60.1,76,30.04,10.0,SSE,3.5,-,N/A,,Clear,160,2012-10-23 01:53:00
9:53 PM,64.9,59.0,81,30.04,10.0,ESE,3.5,-,N/A,,Clear,120,2012-10-23 02:53:00
10:53 PM,64.9,59.0,81,30.04,10.0,ESE,4.6,-,N/A,,Clear,120,2012-10-23 03:53:00
11:53 PM,64.9,59.0,81,30.04,10.0,SSE,4.6,-,N/A,,Clear,150,2012-10-23 04:53:00